Time;durP1;ratioP1;P1;durP2;ratioP2;P2;SDS_P1;SDS_P2;PMS_P1;PMS_P2;Temp;Humidity;BMP_temperature;BMP_pressure;BME280_temperature;BME280_humidity;BME280_pressure;Samples;Min_cycle;Max_cycle;Signal;HPM_P1;HPM_P2
2023/09/18 04:44:07;;;;;;;;;;;;;;;10.39;91.48;101023.23;107390;1276;22592;-48
2023/09/18 04:46:35;;;;;;;;;;;;;;;10.39;91.64;101024.28;110045;1271;22485;-46
2023/09/18 04:49:03;;;;;;;;;;;;;;;10.35;91.88;101026.85;110285;1276;22457;-46
2023/09/18 04:51:34;;;;;;;;;;;;;;;10.35;92.15;101020.91;108933;1276;22537;-38
2023/09/18 04:54:01;;;;;;;;;;;;;;;10.36;92.49;101019.87;110329;1263;22524;-38
2023/09/18 04:56:29;;;;;;;;;;;;;;;10.39;93.13;101025.15;109998;1266;22534;-39
2023/09/18 04:58:57;;;;;;;;;;;;;;;10.46;93.65;101021.21;110200;1263;22634;-46
2023/09/18 05:01:24;;;;;;;;;;;;;;;10.54;94.51;101022.71;110251;1266;22431;-38
2023/09/18 05:03:52;;;;;;;;;;;;;;;10.63;95.02;101016.89;110096;1269;22474;-39
2023/09/18 05:06:18;;;;;;;;;;;;;;;10.74;95.46;101019.77;110379;1267;22440;-46
2023/09/18 05:08:45;;;;;;;;;;;;;;;10.85;95.79;101016.07;109669;1266;23166;-39
2023/09/18 05:11:12;;;;;;;;;;;;;;;10.99;95.91;101016.73;110227;1263;22498;-39
2023/09/18 05:13:41;;;;;;;;;;;;;;;11.12;96.08;101012.84;110289;1267;22416;-38
2023/09/18 05:16:07;;;;;;;;;;;;;;;11.25;96.22;101013.65;109909;1269;22526;-39
2023/09/18 05:18:34;;;;;;;;;;;;;;;11.36;96.40;101008.67;109330;1265;22523;-38
2023/09/18 05:21:01;;;;;;;;;;;;;;;11.47;96.46;101011.21;109794;1266;22488;-46
2023/09/18 05:23:29;;;;;;;;;;;;;;;11.59;96.40;101011.30;110281;1269;22442;-47
2023/09/18 05:25:56;;;;;;;;;;;;;;;11.70;96.53;101009.98;110211;1266;23281;-47
2023/09/18 05:28:22;;;;;;;;;;;;;;;11.83;96.60;101011.65;109904;1266;22576;-40
2023/09/18 05:30:49;;;;;;;;;;;;;;;11.95;96.57;101012.09;109957;1267;23587;-39
2023/09/18 05:33:16;;;;;;;;;;;;;;;12.09;96.78;101009.73;109824;1269;23617;-39
2023/09/18 05:35:43;;;;;;;;;;;;;;;12.22;96.61;101011.52;109726;1269;22512;-39
2023/09/18 05:38:11;;;;;;;;;;;;;;;12.36;96.48;101009.84;109944;1261;23690;-39
2023/09/18 05:40:37;;;;;;;;;;;;;;;12.52;96.49;101006.92;109815;1269;23302;-47
2023/09/18 05:43:04;;;;;;;;;;;;;;;12.70;96.30;101003.30;110108;1270;22993;-47
2023/09/18 05:45:32;;;;;;;;;;;;;;;12.90;95.95;101002.47;110162;1272;23598;-48
2023/09/18 05:48:03;;;;;;;;;;;;;;;13.07;95.62;101003.55;109941;1263;22528;-39
2023/09/18 05:50:32;;;;;;;;;;;;;;;13.26;95.35;101002.02;109997;1266;22475;-40
2023/09/18 05:53:03;;;;;;;;;;;;;;;13.45;95.05;101004.63;109862;1267;22486;-39
2023/09/18 05:55:31;;;;;;;;;;;;;;;13.66;94.51;101001.80;109931;1269;22464;-38
2023/09/18 05:57:57;;;;;;;;;;;;;;;13.85;93.98;100998.09;110036;1270;22447;-48
2023/09/18 06:00:24;;;;;;;;;;;;;;;14.02;93.42;100998.40;109556;1267;22519;-46
2023/09/18 06:02:51;;;;;;;;;;;;;;;14.20;92.96;100999.21;109375;1269;22526;-38
2023/09/18 06:05:37;;;;;;;;;;;;;;;14.42;92.44;100996.67;109264;1269;22756;-47
2023/09/18 06:08:16;;;;;;;;;;;;;;;14.66;91.75;100996.94;109428;1260;23033;-47
2023/09/18 06:10:43;;;;;;;;;;;;;;;14.86;91.29;100998.39;109812;1269;22468;-40
2023/09/18 06:13:10;;;;;;;;;;;;;;;15.08;90.64;100997.53;109769;1269;22544;-39
2023/09/18 06:15:37;;;;;;;;;;;;;;;15.30;89.57;100999.46;110114;1270;22591;-40
2023/09/18 06:18:03;;;;;;;;;;;;;;;15.53;88.31;101000.51;109854;1266;23060;-40
2023/09/18 06:20:41;;;;;;;;;;;;;;;15.78;87.01;101004.34;109134;1276;22479;-41
2023/09/18 06:23:07;;;;;;;;;;;;;;;15.99;85.34;101003.92;109533;1270;22503;-43
2023/09/18 06:25:34;;;;;;;;;;;;;;;16.20;83.41;101002.99;109249;1266;22559;-48
2023/09/18 06:28:03;;;;;;;;;;;;;;;16.41;82.43;101000.27;109621;1270;22626;-50
2023/09/18 06:30:31;;;;;;;;;;;;;;;16.64;81.79;100994.15;109865;1267;23270;-47
2023/09/18 06:32:57;;;;;;;;;;;;;;;16.86;80.87;101001.61;109971;1266;22498;-49
2023/09/18 06:35:24;;;;;;;;;;;;;;;17.07;79.76;100999.17;109624;1263;188972;-41
2023/09/18 06:37:51;;;;;;;;;;;;;;;17.28;78.68;101002.73;109990;1269;22638;-46
2023/09/18 06:40:18;;;;;;;;;;;;;;;17.47;77.85;101005.59;110093;1261;22542;-42
2023/09/18 06:42:47;;;;;;;;;;;;;;;17.66;76.90;101005.42;109177;1272;24227;-48
2023/09/18 06:45:14;;;;;;;;;;;;;;;17.89;76.62;101003.10;109234;1267;22612;-49
2023/09/18 06:52:29;;;;;;;;;;;;;;;18.50;71.79;101006.10;108858;1270;22515;-40
2023/09/18 06:55:09;;;;;;;;;;;;;;;18.69;69.93;101005.00;109168;1269;22682;-38
2023/09/18 06:57:37;;;;;;;;;;;;;;;18.88;70.58;101002.27;109303;1270;23815;-44
2023/09/18 07:00:05;;;;;;;;;;;;;;;19.14;70.03;100999.52;109712;1269;23164;-47
2023/09/18 07:02:34;;;;;;;;;;;;;;;19.38;67.51;101002.31;109908;1273;22571;-47
2023/09/18 07:05:00;;;;;;;;;;;;;;;19.55;65.78;101003.66;109912;1267;23246;-39
2023/09/18 07:07:30;;;;;;;;;;;;;;;19.70;64.88;101003.82;109807;1269;24204;-48
2023/09/18 07:09:57;;;;;;;;;;;;;;;19.85;63.68;101003.06;110000;1269;22732;-48
2023/09/18 07:12:28;;;;;;;;;;;;;;;20.00;62.29;101003.71;109510;1267;22600;-47
2023/09/18 07:14:55;;;;;;;;;;;;;;;20.11;61.66;101000.20;109761;1258;22480;-40
2023/09/18 07:17:21;;;;;;;;;;;;;;;20.25;61.26;101004.25;110077;1266;23036;-39
2023/09/18 07:19:48;;;;;;;;;;;;;;;20.39;60.28;101004.02;109930;1269;23243;-47
2023/09/18 07:22:16;;;;;;;;;;;;;;;20.52;59.61;101002.77;109731;1270;22504;-48
2023/09/18 07:24:45;;;;;;;;;;;;;;;20.65;58.81;101001.86;110116;1264;22499;-46
2023/09/18 07:27:12;;;;;;;;;;;;;;;20.81;57.56;101002.07;109613;1266;23307;-47
2023/09/18 07:29:41;;;;;;;;;;;;;;;20.94;56.18;100997.23;109347;1270;22869;-39
2023/09/18 07:32:09;;;;;;;;;;;;;;;21.05;55.28;100995.11;109961;1274;22528;-48
2023/09/18 07:34:37;;;;;;;;;;;;;;;21.16;53.97;100996.50;109653;1271;22614;-47
2023/09/18 07:37:07;;;;;;;;;;;;;;;21.31;52.78;100998.01;109749;1270;22970;-40
2023/09/18 07:39:34;;;;;;;;;;;;;;;21.43;52.14;100994.21;109839;1269;22445;-48
2023/09/18 07:42:01;;;;;;;;;;;;;;;21.57;51.50;100987.34;109994;1266;22482;-39
2023/09/18 07:44:29;;;;;;;;;;;;;;;21.71;51.05;100986.33;109735;1266;22976;-39
2023/09/18 07:46:57;;;;;;;;;;;;;;;21.86;50.90;100983.33;109449;1272;22963;-47
2023/09/18 07:49:24;;;;;;;;;;;;;;;22.02;50.38;100979.20;109880;1269;23204;-40
2023/09/18 07:51:50;;;;;;;;;;;;;;;22.17;49.26;100978.65;109716;1263;23338;-48
2023/09/18 07:54:17;;;;;;;;;;;;;;;22.30;47.99;100975.49;109907;1269;22546;-49
2023/09/18 07:56:44;;;;;;;;;;;;;;;22.44;47.80;100970.19;109938;1269;22457;-47
2023/09/18 07:59:11;;;;;;;;;;;;;;;22.55;46.26;100970.29;109058;1269;23647;-48
2023/09/18 08:01:38;;;;;;;;;;;;;;;22.65;45.99;100970.41;109967;1270;22450;-47
2023/09/18 08:04:05;;;;;;;;;;;;;;;22.78;44.99;100969.91;109717;1269;22631;-40
2023/09/18 08:06:33;;;;;;;;;;;;;;;22.88;44.35;100970.61;110077;1269;22527;-49
2023/09/18 08:09:00;;;;;;;;;;;;;;;23.00;43.88;100972.08;110072;1269;23211;-49
2023/09/18 08:11:27;;;;;;;;;;;;;;;23.07;42.43;100968.55;110141;1268;22476;-48
2023/09/18 08:13:54;;;;;;;;;;;;;;;23.12;41.84;100969.96;109806;1269;22523;-40
2023/09/18 08:16:21;;;;;;;;;;;;;;;23.19;41.33;100967.74;109584;1272;25381;-41
2023/09/18 08:18:50;;;;;;;;;;;;;;;23.27;40.90;100964.88;109196;1271;22593;-40
2023/09/18 08:21:17;;;;;;;;;;;;;;;23.33;40.38;100963.59;110135;1264;22566;-47
2023/09/18 08:23:44;;;;;;;;;;;;;;;23.35;40.24;100962.06;110083;1267;22449;-47
2023/09/18 08:26:15;;;;;;;;;;;;;;;23.39;40.09;100967.81;110198;1266;22442;-47
2023/09/18 08:28:45;;;;;;;;;;;;;;;23.42;40.29;100965.88;109593;1270;22606;-48
2023/09/18 08:31:16;;;;;;;;;;;;;;;23.48;39.99;100965.98;109952;1270;22441;-48
2023/09/18 08:33:44;;;;;;;;;;;;;;;23.56;39.91;100963.14;109360;1267;22557;-38
2023/09/18 08:36:15;;;;;;;;;;;;;;;23.68;39.63;100959.27;109592;1269;22498;-47
2023/09/18 08:38:43;;;;;;;;;;;;;;;23.76;39.02;100957.45;110055;1273;22442;-40
2023/09/18 08:41:13;;;;;;;;;;;;;;;23.80;38.26;100958.38;109892;1270;22955;-39
2023/09/18 08:43:50;;;;;;;;;;;;;;;23.83;38.74;100959.64;108573;1272;22517;-47
2023/09/18 08:46:21;;;;;;;;;;;;;;;23.89;38.95;100952.59;109445;1270;22924;-47
2023/09/18 08:48:54;;;;;;;;;;;;;;;24.00;38.85;100950.36;109408;1262;23753;-39
2023/09/18 08:51:32;;;;;;;;;;;;;;;24.09;38.62;100945.63;109260;1263;23753;-47
2023/09/18 08:54:04;;;;;;;;;;;;;;;24.21;38.62;100942.58;109726;1266;23076;-41
2023/09/18 08:56:31;;;;;;;;;;;;;;;24.32;38.02;100941.02;109878;1268;22445;-52
2023/09/18 08:58:59;;;;;;;;;;;;;;;24.41;37.93;100940.98;109408;1260;22617;-39
2023/09/18 09:01:26;;;;;;;;;;;;;;;24.52;37.92;100941.88;109948;1269;23089;-48
2023/09/18 09:03:55;;;;;;;;;;;;;;;24.51;37.19;100936.59;109973;1269;22473;-48
2023/09/18 09:06:22;;;;;;;;;;;;;;;24.45;37.64;100936.17;109762;1270;22479;-40
2023/09/18 09:08:49;;;;;;;;;;;;;;;24.43;37.71;100936.96;109488;1271;22490;-49
2023/09/18 09:11:16;;;;;;;;;;;;;;;24.46;37.71;100930.41;110027;1269;22557;-49
2023/09/18 09:13:43;;;;;;;;;;;;;;;24.51;37.48;100932.84;109957;1269;23331;-47
2023/09/18 09:16:14;;;;;;;;;;;;;;;24.53;37.40;100924.20;108967;1270;22639;-47
2023/09/18 09:18:49;;;;;;;;;;;;;;;24.51;36.66;100924.29;109942;1270;22454;-38
2023/09/18 09:21:18;;;;;;;;;;;;;;;24.42;37.11;100925.79;109690;1269;22559;-40
2023/09/18 09:23:48;;;;;;;;;;;;;;;24.42;37.18;100924.36;108676;1270;22505;-47
2023/09/18 09:26:16;;;;;;;;;;;;;;;24.46;36.75;100923.25;110171;1263;22641;-40
2023/09/18 09:28:44;;;;;;;;;;;;;;;24.42;36.55;100927.02;109580;1269;22504;-40
2023/09/18 09:31:10;;;;;;;;;;;;;;;24.33;36.79;100924.58;109623;1269;22479;-48
2023/09/18 09:33:40;;;;;;;;;;;;;;;24.28;36.62;100927.28;109863;1272;22986;-40
2023/09/18 09:36:07;;;;;;;;;;;;;;;24.24;36.74;100923.39;109586;1266;23897;-40
2023/09/18 09:38:34;;;;;;;;;;;;;;;24.24;36.81;100922.17;109716;1269;22531;-38
2023/09/18 09:41:02;;;;;;;;;;;;;;;24.27;36.68;100919.48;109680;1270;22815;-39
2023/09/18 09:43:31;;;;;;;;;;;;;;;24.34;36.44;100918.12;109160;1272;22527;-47
2023/09/18 09:45:58;;;;;;;;;;;;;;;24.37;36.20;100916.03;109407;1269;23558;-47
2023/09/18 09:48:30;;;;;;;;;;;;;;;24.37;36.00;100916.41;109628;1269;22503;-40
2023/09/18 09:50:59;;;;;;;;;;;;;;;24.33;36.16;100917.09;108435;1267;22965;-46
2023/09/18 09:53:47;;;;;;;;;;;;;;;24.36;36.29;100914.64;108853;1266;24082;-41
2023/09/18 09:56:20;;;;;;;;;;;;;;;24.46;36.41;100911.86;108869;1269;22496;-47
2023/09/18 09:59:07;;;;;;;;;;;;;;;24.54;36.22;100911.32;109365;1270;24200;-46
2023/09/18 10:01:34;;;;;;;;;;;;;;;24.63;35.81;100912.09;109571;1267;23080;-40
2023/09/18 10:04:07;;;;;;;;;;;;;;;24.68;35.55;100904.55;110048;1269;23726;-41
2023/09/18 10:06:34;;;;;;;;;;;;;;;24.73;35.52;100906.62;109971;1270;22443;-40
2023/09/18 10:09:07;;;;;;;;;;;;;;;24.88;35.74;100900.70;109783;1269;22576;-42
2023/09/18 10:11:45;;;;;;;;;;;;;;;25.14;35.66;100891.91;109729;1266;24208;-50
2023/09/18 10:14:18;;;;;;;;;;;;;;;25.43;34.87;100897.20;109816;1270;22485;-49
2023/09/18 10:16:51;;;;;;;;;;;;;;;25.69;34.65;100893.33;109779;1270;25448;-41
2023/09/18 10:19:39;;;;;;;;;;;;;;;26.02;34.29;100891.55;109904;1269;23133;-41
2023/09/18 10:22:22;;;;;;;;;;;;;;;26.45;33.66;100882.95;109758;1270;22521;-41
2023/09/18 10:24:51;;;;;;;;;;;;;;;26.93;32.83;100880.34;109888;1261;22499;-40
2023/09/18 10:27:26;;;;;;;;;;;;;;;27.42;32.30;100878.69;109982;1270;23133;-40
2023/09/18 10:29:54;;;;;;;;;;;;;;;28.02;31.68;100875.83;109764;1269;22485;-49
2023/09/18 10:32:21;;;;;;;;;;;;;;;28.70;30.91;100866.57;109666;1261;23558;-49
2023/09/18 10:34:48;;;;;;;;;;;;;;;29.38;29.82;100866.48;109985;1270;22467;-50
2023/09/18 10:37:15;;;;;;;;;;;;;;;29.94;29.07;100865.37;110078;1276;22536;-49
2023/09/18 10:39:43;;;;;;;;;;;;;;;30.51;28.71;100863.01;109649;1272;22484;-48
2023/09/18 10:42:22;;;;;;;;;;;;;;;31.00;27.74;100861.54;110006;1269;23367;-40
2023/09/18 10:44:55;;;;;;;;;;;;;;;31.41;27.11;100857.59;109090;1272;22542;-39
2023/09/18 10:47:21;;;;;;;;;;;;;;;31.68;26.86;100855.48;109918;1270;22681;-47
2023/09/18 10:49:50;;;;;;;;;;;;;;;31.99;26.90;100848.87;109745;1268;22503;-47
2023/09/18 10:52:29;;;;;;;;;;;;;;;32.41;25.79;100844.55;110048;1272;22948;-47
2023/09/18 10:54:55;;;;;;;;;;;;;;;32.59;24.53;100843.77;110076;1272;22454;-48
2023/09/18 10:57:22;;;;;;;;;;;;;;;32.40;24.49;100844.46;110070;1272;22550;-47
2023/09/18 11:00:13;;;;;;;;;;;;;;;32.35;24.34;100836.17;110088;1276;22422;-39
2023/09/18 11:02:48;;;;;;;;;;;;;;;32.42;24.19;100840.30;110040;1272;23277;-39
2023/09/18 11:05:26;;;;;;;;;;;;;;;32.45;24.22;100835.02;110196;1270;22518;-39
2023/09/18 11:08:11;;;;;;;;;;;;;;;32.62;23.99;100829.60;110165;1273;22781;-39
2023/09/18 11:11:04;;;;;;;;;;;;;;;32.82;23.79;100825.38;110215;1266;23282;-39
2023/09/18 11:13:33;;;;;;;;;;;;;;;32.94;24.00;100820.45;109914;1270;23154;-40
2023/09/18 11:16:00;;;;;;;;;;;;;;;32.90;23.71;100822.77;109964;1272;22534;-40
2023/09/18 11:18:34;;;;;;;;;;;;;;;32.57;23.73;100819.73;109904;1276;22452;-39
2023/09/18 11:21:11;;;;;;;;;;;;;;;32.17;23.78;100818.36;109808;1270;23544;-39
2023/09/18 11:23:38;;;;;;;;;;;;;;;31.74;24.39;100813.95;109928;1270;22429;-40
2023/09/18 11:26:06;;;;;;;;;;;;;;;31.37;24.63;100816.17;109996;1270;22465;-41
2023/09/18 11:28:33;;;;;;;;;;;;;;;30.76;24.57;100815.23;109939;1272;22436;-39
2023/09/18 11:31:02;;;;;;;;;;;;;;;29.98;25.19;100815.17;109853;1269;23285;-40
2023/09/18 11:33:32;;;;;;;;;;;;;;;29.30;26.25;100810.79;109978;1273;22439;-38
2023/09/18 11:36:03;;;;;;;;;;;;;;;28.84;26.62;100808.43;110015;1269;23307;-40
2023/09/18 11:38:30;;;;;;;;;;;;;;;28.38;27.14;100808.23;109754;1274;22506;-40
2023/09/18 11:40:58;;;;;;;;;;;;;;;27.99;27.70;100807.73;109943;1269;22462;-39
2023/09/18 11:43:29;;;;;;;;;;;;;;;27.68;27.97;100805.57;109949;1273;23309;-39
2023/09/18 11:45:57;;;;;;;;;;;;;;;27.47;28.19;100800.11;109996;1270;22485;-40
2023/09/18 11:48:27;;;;;;;;;;;;;;;27.35;28.52;100804.79;110127;1269;23284;-40
2023/09/18 11:50:55;;;;;;;;;;;;;;;27.18;28.88;100797.75;110118;1270;23671;-39
2023/09/18 11:53:23;;;;;;;;;;;;;;;27.15;29.10;100795.67;110119;1270;22508;-39
2023/09/18 11:55:51;;;;;;;;;;;;;;;27.16;28.79;100799.53;110055;1270;22512;-39
2023/09/18 11:58:23;;;;;;;;;;;;;;;27.01;28.98;100802.04;109022;1270;22511;-47
2023/09/18 12:01:06;;;;;;;;;;;;;;;26.85;29.41;100799.58;109638;1275;27064;-46
2023/09/18 12:03:35;;;;;;;;;;;;;;;26.76;29.57;100802.27;109501;1274;22496;-39
2023/09/18 12:06:05;;;;;;;;;;;;;;;26.71;29.64;100800.20;110000;1269;22450;-40
2023/09/18 12:08:32;;;;;;;;;;;;;;;26.60;29.61;100797.48;110000;1269;22880;-40
2023/09/18 12:10:59;;;;;;;;;;;;;;;26.49;29.85;100795.77;109933;1270;23270;-40
2023/09/18 12:13:27;;;;;;;;;;;;;;;26.46;29.83;100795.06;110120;1266;22509;-38
2023/09/18 12:15:58;;;;;;;;;;;;;;;26.47;29.94;100793.74;110010;1269;22451;-39
2023/09/18 12:18:28;;;;;;;;;;;;;;;26.45;30.16;100790.45;109995;1272;23352;-38
2023/09/18 12:20:58;;;;;;;;;;;;;;;26.47;30.46;100789.44;109997;1269;22630;-39
2023/09/18 12:23:26;;;;;;;;;;;;;;;26.57;30.14;100789.09;109892;1270;22582;-38
2023/09/18 12:25:57;;;;;;;;;;;;;;;26.66;30.06;100789.59;109874;1273;23003;-38
2023/09/18 12:28:42;;;;;;;;;;;;;;;26.73;29.89;100790.61;109918;1269;24064;-39
2023/09/18 12:31:10;;;;;;;;;;;;;;;26.79;29.93;100791.14;109900;1269;23784;-40
2023/09/18 12:33:36;;;;;;;;;;;;;;;26.87;29.89;100791.01;110037;1266;22440;-40
2023/09/18 12:36:04;;;;;;;;;;;;;;;26.92;29.79;100786.42;109972;1276;22459;-40
2023/09/18 12:38:32;;;;;;;;;;;;;;;27.00;29.58;100784.54;110252;1269;22522;-39
2023/09/18 12:41:09;;;;;;;;;;;;;;;27.03;29.21;100782.16;110229;1269;22481;-39
2023/09/18 12:43:39;;;;;;;;;;;;;;;26.98;29.50;100777.09;110268;1269;22510;-39
2023/09/18 12:46:06;;;;;;;;;;;;;;;27.10;29.09;100773.02;110083;1272;22846;-40
2023/09/18 12:48:41;;;;;;;;;;;;;;;27.24;29.00;100769.98;110272;1274;22448;-38
2023/09/18 12:51:10;;;;;;;;;;;;;;;27.27;28.69;100764.59;109510;1267;23015;-38
2023/09/18 12:53:37;;;;;;;;;;;;;;;27.14;29.18;100765.60;110163;1273;22450;-39
2023/09/18 12:56:08;;;;;;;;;;;;;;;27.06;29.55;100759.10;110110;1270;22448;-38
2023/09/18 12:58:34;;;;;;;;;;;;;;;27.15;29.23;100754.48;110040;1269;22996;-39
2023/09/18 13:01:18;;;;;;;;;;;;;;;27.23;28.72;100750.40;110101;1272;22494;-38
2023/09/18 13:03:46;;;;;;;;;;;;;;;27.35;28.64;100751.92;110004;1276;22449;-39
2023/09/18 13:06:19;;;;;;;;;;;;;;;27.47;28.44;100751.91;110135;1266;22984;-39
2023/09/18 13:08:46;;;;;;;;;;;;;;;27.40;28.11;100754.65;110153;1276;22464;-38
2023/09/18 13:11:16;;;;;;;;;;;;;;;27.31;28.24;100754.02;110227;1272;22823;-38
2023/09/18 13:13:43;;;;;;;;;;;;;;;27.20;28.32;100755.73;110226;1276;22590;-39
2023/09/18 13:16:10;;;;;;;;;;;;;;;27.11;28.50;100760.63;110126;1273;23227;-38
2023/09/18 13:18:39;;;;;;;;;;;;;;;27.03;28.50;100755.73;110222;1266;22446;-38
2023/09/18 13:21:13;;;;;;;;;;;;;;;26.88;28.34;100754.10;110239;1275;22494;-39
2023/09/18 13:23:40;;;;;;;;;;;;;;;26.77;28.50;100752.60;110337;1266;22571;-39
2023/09/18 13:26:10;;;;;;;;;;;;;;;26.76;28.68;100749.80;109823;1276;22593;-39
2023/09/18 13:28:37;;;;;;;;;;;;;;;26.74;28.53;100746.71;107901;1276;25373;-38
2023/09/18 13:31:07;;;;;;;;;;;;;;;26.65;28.48;100748.52;110312;1266;22454;-47
2023/09/18 13:33:44;;;;;;;;;;;;;;;26.55;28.60;100747.88;110307;1269;22471;-40
2023/09/18 13:36:11;;;;;;;;;;;;;;;26.48;28.70;100742.86;109651;1276;24175;-40
2023/09/18 13:38:38;;;;;;;;;;;;;;;26.50;28.84;100742.79;107729;1276;22525;-39
2023/09/18 13:41:05;;;;;;;;;;;;;;;26.62;28.62;100743.35;110173;1276;22509;-38
2023/09/18 13:43:34;;;;;;;;;;;;;;;26.81;28.40;100746.14;110260;1276;23252;-46
2023/09/18 13:46:04;;;;;;;;;;;;;;;26.92;28.32;100742.44;110341;1276;22555;-47
2023/09/18 13:48:32;;;;;;;;;;;;;;;26.99;28.30;100742.36;108879;1270;24260;-47
2023/09/18 13:50:59;;;;;;;;;;;;;;;27.05;28.27;100740.37;110044;1271;22514;-47
2023/09/18 13:53:27;;;;;;;;;;;;;;;27.08;28.08;100736.45;108466;1266;25446;-39
2023/09/18 13:55:56;;;;;;;;;;;;;;;27.16;28.30;100734.85;108204;1275;23094;-47
2023/09/18 13:58:23;;;;;;;;;;;;;;;27.29;28.16;100730.28;108177;1259;22550;-42
2023/09/18 14:00:50;;;;;;;;;;;;;;;27.28;27.83;100729.48;109409;1273;22601;-39
2023/09/18 14:03:18;;;;;;;;;;;;;;;27.23;28.00;100730.48;110010;1266;23404;-48
2023/09/18 14:05:45;;;;;;;;;;;;;;;27.23;27.51;100730.33;110183;1276;22442;-39
2023/09/18 14:08:12;;;;;;;;;;;;;;;27.34;27.32;100730.73;110335;1276;22428;-38
2023/09/18 14:10:39;;;;;;;;;;;;;;;27.54;26.93;100726.20;110301;1275;22417;-46
2023/09/18 14:13:07;;;;;;;;;;;;;;;27.67;26.65;100722.54;110310;1270;22953;-39
2023/09/18 14:15:34;;;;;;;;;;;;;;;27.76;26.60;100721.95;110314;1276;22487;-39
2023/09/18 14:18:00;;;;;;;;;;;;;;;27.82;26.34;100718.52;110393;1260;22409;-39
2023/09/18 14:20:27;;;;;;;;;;;;;;;27.80;26.06;100716.34;110327;1266;22485;-39
2023/09/18 14:22:54;;;;;;;;;;;;;;;27.82;26.27;100712.95;110340;1273;22902;-38
